sensor_id;sensor_type;location;lat;lon;timestamp;pressure;altitude;pressure_sealevel;temperature;humidity
52855;BME280;38719;51.418;7.286;2023-02-02T00:01:22;100191.03;;;6.17;80.80
52855;BME280;38719;51.418;7.286;2023-02-02T00:03:50;100197.97;;;6.21;80.97
52855;BME280;38719;51.418;7.286;2023-02-02T00:06:18;100191.94;;;6.16;80.58
52855;BME280;38719;51.418;7.286;2023-02-02T00:08:46;100190.91;;;6.23;80.48
52855;BME280;38719;51.418;7.286;2023-02-02T00:11:15;100178.47;;;6.25;80.92
52855;BME280;38719;51.418;7.286;2023-02-02T00:13:45;100178.47;;;6.26;80.60
52855;BME280;38719;51.418;7.286;2023-02-02T00:16:35;100187.34;;;6.24;80.64
52855;BME280;38719;51.418;7.286;2023-02-02T00:19:05;100181.97;;;6.27;80.72
52855;BME280;38719;51.418;7.286;2023-02-02T00:21:34;100179.88;;;6.41;80.83
52855;BME280;38719;51.418;7.286;2023-02-02T00:24:03;100179.78;;;6.44;80.26
52855;BME280;38719;51.418;7.286;2023-02-02T00:26:31;100177.13;;;6.44;80.60
52855;BME280;38719;51.418;7.286;2023-02-02T00:29:00;100172.59;;;6.50;80.47
52855;BME280;38719;51.418;7.286;2023-02-02T00:31:28;100167.22;;;6.17;80.50
52855;BME280;38719;51.418;7.286;2023-02-02T00:33:55;100182.78;;;6.31;81.14
52855;BME280;38719;51.418;7.286;2023-02-02T00:36:23;100170.69;;;6.20;80.83
52855;BME280;38719;51.418;7.286;2023-02-02T00:38:51;100184.63;;;5.86;82.30
52855;BME280;38719;51.418;7.286;2023-02-02T00:41:19;100179.47;;;5.80;83.28
52855;BME280;38719;51.418;7.286;2023-02-02T00:43:47;100187.09;;;5.94;83.13
52855;BME280;38719;51.418;7.286;2023-02-02T00:46:38;100192.31;;;5.97;83.00
52855;BME280;38719;51.418;7.286;2023-02-02T00:49:04;100190.72;;;5.90;82.95
52855;BME280;38719;51.418;7.286;2023-02-02T00:51:32;100182.66;;;5.96;83.10
52855;BME280;38719;51.418;7.286;2023-02-02T00:54:00;100186.84;;;6.08;83.57
52855;BME280;38719;51.418;7.286;2023-02-02T00:56:27;100186.69;;;6.14;82.87
52855;BME280;38719;51.418;7.286;2023-02-02T00:58:55;100182.91;;;6.24;82.43
52855;BME280;38719;51.418;7.286;2023-02-02T01:01:22;100184.72;;;6.22;82.24
52855;BME280;38719;51.418;7.286;2023-02-02T01:03:51;100187.34;;;6.24;82.49
52855;BME280;38719;51.418;7.286;2023-02-02T01:06:19;100185.31;;;6.35;82.80
52855;BME280;38719;51.418;7.286;2023-02-02T01:08:46;100184.44;;;6.35;82.22
52855;BME280;38719;51.418;7.286;2023-02-02T01:11:14;100192.06;;;6.49;82.11
52855;BME280;38719;51.418;7.286;2023-02-02T01:13:42;100190.41;;;6.43;82.28
52855;BME280;38719;51.418;7.286;2023-02-02T01:16:10;100195.44;;;6.18;83.20
52855;BME280;38719;51.418;7.286;2023-02-02T01:18:38;100189.84;;;6.28;83.37
52855;BME280;38719;51.418;7.286;2023-02-02T01:21:09;100194.19;;;6.33;83.78
52855;BME280;38719;51.418;7.286;2023-02-02T01:23:37;100194.63;;;6.12;84.38
52855;BME280;38719;51.418;7.286;2023-02-02T01:26:07;100196.50;;;6.09;84.45
52855;BME280;38719;51.418;7.286;2023-02-02T01:28:35;100193.88;;;6.07;84.96
52855;BME280;38719;51.418;7.286;2023-02-02T01:31:07;100187.50;;;6.16;85.43
52855;BME280;38719;51.418;7.286;2023-02-02T01:33:36;100191.09;;;6.13;84.87
52855;BME280;38719;51.418;7.286;2023-02-02T01:36:09;100190.22;;;6.13;84.95
52855;BME280;38719;51.418;7.286;2023-02-02T01:38:37;100192.94;;;6.10;85.52
52855;BME280;38719;51.418;7.286;2023-02-02T01:41:05;100194.44;;;6.22;85.14
52855;BME280;38719;51.418;7.286;2023-02-02T01:43:55;100193.25;;;6.35;85.23
52855;BME280;38719;51.418;7.286;2023-02-02T01:46:25;100195.00;;;6.35;84.98
52855;BME280;38719;51.418;7.286;2023-02-02T01:48:57;100194.22;;;6.31;84.78
52855;BME280;38719;51.418;7.286;2023-02-02T01:51:31;100193.44;;;6.26;85.18
52855;BME280;38719;51.418;7.286;2023-02-02T01:54:00;100204.94;;;6.25;85.96
52855;BME280;38719;51.418;7.286;2023-02-02T01:56:31;100203.88;;;6.32;85.75
52855;BME280;38719;51.418;7.286;2023-02-02T01:59:01;100203.59;;;6.44;85.81
52855;BME280;38719;51.418;7.286;2023-02-02T02:01:29;100202.78;;;6.42;85.05
52855;BME280;38719;51.418;7.286;2023-02-02T02:03:57;100207.78;;;6.55;84.82
52855;BME280;38719;51.418;7.286;2023-02-02T02:06:25;100211.19;;;6.60;85.21
52855;BME280;38719;51.418;7.286;2023-02-02T02:08:56;100208.94;;;6.43;85.78
52855;BME280;38719;51.418;7.286;2023-02-02T02:11:26;100211.53;;;6.44;86.03
52855;BME280;38719;51.418;7.286;2023-02-02T02:13:56;100211.31;;;6.54;85.83
52855;BME280;38719;51.418;7.286;2023-02-02T02:16:51;100219.97;;;6.62;85.16
52855;BME280;38719;51.418;7.286;2023-02-02T02:22:46;100212.19;;;6.54;85.47
52855;BME280;38719;51.418;7.286;2023-02-02T02:26:07;100207.69;;;6.58;86.12
52855;BME280;38719;51.418;7.286;2023-02-02T02:29:09;100206.63;;;6.65;85.58
52855;BME280;38719;51.418;7.286;2023-02-02T02:32:04;100203.13;;;6.65;85.50
52855;BME280;38719;51.418;7.286;2023-02-02T02:34:47;100209.13;;;6.71;85.37
52855;BME280;38719;51.418;7.286;2023-02-02T02:37:22;100198.69;;;6.65;85.53
52855;BME280;38719;51.418;7.286;2023-02-02T02:39:56;100200.59;;;6.60;85.88
52855;BME280;38719;51.418;7.286;2023-02-02T02:42:30;100198.91;;;6.57;85.69
52855;BME280;38719;51.418;7.286;2023-02-02T02:45:01;100204.19;;;6.56;86.29
52855;BME280;38719;51.418;7.286;2023-02-02T02:47:32;100205.78;;;6.65;86.42
52855;BME280;38719;51.418;7.286;2023-02-02T02:50:01;100208.28;;;6.69;86.16
52855;BME280;38719;51.418;7.286;2023-02-02T02:52:28;100207.22;;;6.76;85.87
52855;BME280;38719;51.418;7.286;2023-02-02T02:54:57;100210.13;;;6.67;85.19
52855;BME280;38719;51.418;7.286;2023-02-02T02:57:38;100223.56;;;6.58;86.79
52855;BME280;38719;51.418;7.286;2023-02-02T03:00:17;100213.41;;;6.77;86.23
52855;BME280;38719;51.418;7.286;2023-02-02T03:02:56;100210.03;;;6.70;85.38
52855;BME280;38719;51.418;7.286;2023-02-02T03:05:30;100208.97;;;6.77;85.41
52855;BME280;38719;51.418;7.286;2023-02-02T03:08:06;100215.44;;;6.66;85.78
52855;BME280;38719;51.418;7.286;2023-02-02T03:10:37;100214.34;;;6.74;85.32
52855;BME280;38719;51.418;7.286;2023-02-02T03:13:06;100219.66;;;6.74;85.92
52855;BME280;38719;51.418;7.286;2023-02-02T03:15:35;100210.94;;;6.69;85.22
52855;BME280;38719;51.418;7.286;2023-02-02T03:18:04;100218.84;;;6.71;85.92
52855;BME280;38719;51.418;7.286;2023-02-02T03:20:31;100212.13;;;6.57;86.04
52855;BME280;38719;51.418;7.286;2023-02-02T03:22:59;100203.28;;;6.57;86.05
52855;BME280;38719;51.418;7.286;2023-02-02T03:25:27;100200.59;;;6.60;85.16
52855;BME280;38719;51.418;7.286;2023-02-02T03:27:54;100199.41;;;6.72;85.12
52855;BME280;38719;51.418;7.286;2023-02-02T03:30:22;100197.53;;;6.75;84.22
52855;BME280;38719;51.418;7.286;2023-02-02T03:32:51;100209.97;;;6.72;84.55
52855;BME280;38719;51.418;7.286;2023-02-02T03:35:20;100195.75;;;6.77;84.69
52855;BME280;38719;51.418;7.286;2023-02-02T03:37:48;100203.56;;;6.82;83.96
52855;BME280;38719;51.418;7.286;2023-02-02T03:40:16;100211.72;;;6.74;83.94
52855;BME280;38719;51.418;7.286;2023-02-02T03:42:44;100206.91;;;6.89;84.06
52855;BME280;38719;51.418;7.286;2023-02-02T03:45:12;100218.19;;;6.97;84.10
52855;BME280;38719;51.418;7.286;2023-02-02T03:47:39;100210.31;;;6.94;83.29
52855;BME280;38719;51.418;7.286;2023-02-02T03:50:08;100205.34;;;6.82;83.79
52855;BME280;38719;51.418;7.286;2023-02-02T03:52:37;100213.97;;;6.90;83.89
52855;BME280;38719;51.418;7.286;2023-02-02T03:55:05;100208.91;;;6.81;84.04
52855;BME280;38719;51.418;7.286;2023-02-02T03:57:33;100213.13;;;6.88;84.87
52855;BME280;38719;51.418;7.286;2023-02-02T04:00:01;100211.25;;;6.93;84.48
52855;BME280;38719;51.418;7.286;2023-02-02T04:02:28;100216.53;;;6.93;84.05
52855;BME280;38719;51.418;7.286;2023-02-02T04:04:56;100207.38;;;7.05;84.20
52855;BME280;38719;51.418;7.286;2023-02-02T04:07:23;100200.09;;;6.80;84.33
52855;BME280;38719;51.418;7.286;2023-02-02T04:09:52;100209.81;;;6.80;85.25
52855;BME280;38719;51.418;7.286;2023-02-02T04:12:20;100216.06;;;6.75;86.00
52855;BME280;38719;51.418;7.286;2023-02-02T04:14:47;100219.41;;;6.84;85.44
52855;BME280;38719;51.418;7.286;2023-02-02T04:17:15;100208.97;;;6.77;84.96
52855;BME280;38719;51.418;7.286;2023-02-02T04:19:42;100210.56;;;6.85;85.89
52855;BME280;38719;51.418;7.286;2023-02-02T04:22:10;100213.13;;;6.88;85.54
52855;BME280;38719;51.418;7.286;2023-02-02T04:24:37;100207.00;;;6.86;85.08
52855;BME280;38719;51.418;7.286;2023-02-02T04:27:06;100210.88;;;6.72;85.78
52855;BME280;38719;51.418;7.286;2023-02-02T04:29:34;100211.81;;;6.70;85.84
52855;BME280;38719;51.418;7.286;2023-02-02T04:32:01;100216.06;;;6.77;86.51
52855;BME280;38719;51.418;7.286;2023-02-02T04:34:29;100213.97;;;6.90;86.11
52855;BME280;38719;51.418;7.286;2023-02-02T04:36:57;100211.25;;;6.91;85.71
52855;BME280;38719;51.418;7.286;2023-02-02T04:39:24;100218.56;;;6.82;85.81
52855;BME280;38719;51.418;7.286;2023-02-02T04:41:52;100212.22;;;6.89;86.53
52855;BME280;38719;51.418;7.286;2023-02-02T04:44:21;100216.56;;;6.91;86.37
52855;BME280;38719;51.418;7.286;2023-02-02T04:46:48;100220.34;;;6.81;87.06
52855;BME280;38719;51.418;7.286;2023-02-02T04:49:16;100215.31;;;6.70;87.06
52855;BME280;38719;51.418;7.286;2023-02-02T04:51:43;100229.44;;;6.71;87.42
52855;BME280;38719;51.418;7.286;2023-02-02T04:54:11;100223.50;;;6.61;87.80
52855;BME280;38719;51.418;7.286;2023-02-02T04:56:38;100222.59;;;6.62;87.54
52855;BME280;38719;51.418;7.286;2023-02-02T04:59:06;100217.97;;;6.70;88.31
52855;BME280;38719;51.418;7.286;2023-02-02T05:01:35;100207.31;;;6.73;88.63
52855;BME280;38719;51.418;7.286;2023-02-02T05:04:02;100212.81;;;6.64;88.33
52855;BME280;38719;51.418;7.286;2023-02-02T05:06:30;100212.03;;;6.62;87.73
52855;BME280;38719;51.418;7.286;2023-02-02T05:08:57;100209.38;;;6.62;88.26
52855;BME280;38719;51.418;7.286;2023-02-02T05:11:26;100217.91;;;6.73;87.85
52855;BME280;38719;51.418;7.286;2023-02-02T05:13:54;100214.47;;;6.70;88.56
52855;BME280;38719;51.418;7.286;2023-02-02T05:16:22;100207.69;;;6.58;87.99
52855;BME280;38719;51.418;7.286;2023-02-02T05:18:56;100215.47;;;6.64;88.17
52855;BME280;38719;51.418;7.286;2023-02-02T05:21:24;100219.03;;;6.63;87.92
52855;BME280;38719;51.418;7.286;2023-02-02T05:23:52;100218.75;;;6.74;87.68
52855;BME280;38719;51.418;7.286;2023-02-02T05:26:21;100206.75;;;6.60;89.09
52855;BME280;38719;51.418;7.286;2023-02-02T05:28:49;100212.81;;;6.64;88.17
52855;BME280;38719;51.418;7.286;2023-02-02T05:31:18;100216.38;;;6.65;88.46
52855;BME280;38719;51.418;7.286;2023-02-02T05:33:46;100212.97;;;6.58;88.39
52855;BME280;38719;51.418;7.286;2023-02-02T05:36:14;100218.13;;;6.64;88.14
52855;BME280;38719;51.418;7.286;2023-02-02T05:38:42;100218.91;;;6.68;87.72
52855;BME280;38719;51.418;7.286;2023-02-02T05:41:09;100218.06;;;6.67;88.02
52855;BME280;38719;51.418;7.286;2023-02-02T05:43:37;100224.22;;;6.68;88.17
52855;BME280;38719;51.418;7.286;2023-02-02T05:46:04;100218.81;;;6.72;87.43
52855;BME280;38719;51.418;7.286;2023-02-02T05:48:32;100212.63;;;6.73;87.96
52855;BME280;38719;51.418;7.286;2023-02-02T05:51:02;100211.09;;;6.63;88.18
52855;BME280;38719;51.418;7.286;2023-02-02T05:53:32;100216.00;;;6.78;87.59
52855;BME280;38719;51.418;7.286;2023-02-02T05:56:00;100215.22;;;6.75;88.12
52855;BME280;38719;51.418;7.286;2023-02-02T05:58:28;100211.22;;;6.58;87.93
52855;BME280;38719;51.418;7.286;2023-02-02T06:00:55;100217.06;;;6.71;87.69
52855;BME280;38719;51.418;7.286;2023-02-02T06:03:23;100217.28;;;6.64;87.62
52855;BME280;38719;51.418;7.286;2023-02-02T06:05:50;100217.97;;;6.70;87.89
52855;BME280;38719;51.418;7.286;2023-02-02T06:08:18;100230.41;;;6.68;88.50
52855;BME280;38719;51.418;7.286;2023-02-02T06:10:47;100217.78;;;6.78;87.98
52855;BME280;38719;51.418;7.286;2023-02-02T06:13:14;100233.84;;;6.70;88.31
52855;BME280;38719;51.418;7.286;2023-02-02T06:15:42;100231.81;;;6.82;87.44
52855;BME280;38719;51.418;7.286;2023-02-02T06:18:09;100232.50;;;6.90;87.07
52855;BME280;38719;51.418;7.286;2023-02-02T06:20:37;100226.66;;;6.75;86.58
52855;BME280;38719;51.418;7.286;2023-02-02T06:23:05;100227.66;;;6.71;nan
52855;BME280;38719;51.418;7.286;2023-02-02T06:25:32;100235.53;;;6.74;87.81
52855;BME280;38719;51.418;7.286;2023-02-02T06:28:02;100234.66;;;6.74;87.56
52855;BME280;38719;51.418;7.286;2023-02-02T06:30:29;100234.59;;;6.75;87.33
52855;BME280;38719;51.418;7.286;2023-02-02T06:32:58;100237.34;;;6.72;87.38
52855;BME280;38719;51.418;7.286;2023-02-02T06:35:25;100239.84;;;6.78;87.97
52855;BME280;38719;51.418;7.286;2023-02-02T06:37:53;100243.22;;;6.84;87.49
52855;BME280;38719;51.418;7.286;2023-02-02T06:40:20;100243.19;;;6.85;86.90
52855;BME280;38719;51.418;7.286;2023-02-02T06:42:54;100245.94;;;6.82;87.00
52855;BME280;38719;51.418;7.286;2023-02-02T06:45:23;100235.44;;;6.77;87.68
52855;BME280;38719;51.418;7.286;2023-02-02T06:47:52;100248.00;;;6.69;88.32
52855;BME280;38719;51.418;7.286;2023-02-02T06:50:19;100253.03;;;6.80;87.74
52855;BME280;38719;51.418;7.286;2023-02-02T06:52:47;100244.47;;;6.69;87.50
52855;BME280;38719;51.418;7.286;2023-02-02T06:55:15;100250.53;;;6.74;88.14
52855;BME280;38719;51.418;7.286;2023-02-02T06:57:43;100252.63;;;6.59;88.60
52855;BME280;38719;51.418;7.286;2023-02-02T07:00:11;100249.66;;;6.73;88.04
52855;BME280;38719;51.418;7.286;2023-02-02T07:02:43;100258.56;;;6.69;88.80
52855;BME280;38719;51.418;7.286;2023-02-02T07:05:11;100261.16;;;6.72;87.77
52855;BME280;38719;51.418;7.286;2023-02-02T07:07:38;100253.13;;;6.75;87.97
52855;BME280;38719;51.418;7.286;2023-02-02T07:10:07;100258.44;;;6.75;88.30
52855;BME280;38719;51.418;7.286;2023-02-02T07:12:54;100275.44;;;6.65;87.86
52855;BME280;38719;51.418;7.286;2023-02-02T07:15:22;100266.88;;;6.54;88.78
52855;BME280;38719;51.418;7.286;2023-02-02T07:17:53;100267.34;;;6.71;88.48
52855;BME280;38719;51.418;7.286;2023-02-02T07:20:20;100265.56;;;6.73;89.04
52855;BME280;38719;51.418;7.286;2023-02-02T07:22:48;100267.31;;;6.74;87.69
52855;BME280;38719;51.418;7.286;2023-02-02T07:25:15;100273.09;;;6.89;88.40
52855;BME280;38719;51.418;7.286;2023-02-02T07:27:43;100280.44;;;6.77;87.88
52855;BME280;38719;51.418;7.286;2023-02-02T07:30:12;100274.41;;;6.72;87.79
52855;BME280;38719;51.418;7.286;2023-02-02T07:32:45;100278.56;;;6.83;88.31
52855;BME280;38719;51.418;7.286;2023-02-02T07:35:14;100285.44;;;6.90;87.78
52855;BME280;38719;51.418;7.286;2023-02-02T07:37:42;100282.00;;;6.86;86.89
52855;BME280;38719;51.418;7.286;2023-02-02T07:40:10;100285.53;;;6.87;87.99
52855;BME280;38719;51.418;7.286;2023-02-02T07:42:38;100287.00;;;6.61;88.77
52855;BME280;38719;51.418;7.286;2023-02-02T07:45:06;100282.94;;;6.84;88.63
52855;BME280;38719;51.418;7.286;2023-02-02T07:47:57;100292.72;;;6.80;88.61
52855;BME280;38719;51.418;7.286;2023-02-02T07:50:28;100298.13;;;6.77;87.60
52855;BME280;38719;51.418;7.286;2023-02-02T07:52:57;100290.03;;;6.83;88.60
52855;BME280;38719;51.418;7.286;2023-02-02T07:55:25;100292.59;;;6.86;88.10
52855;BME280;38719;51.418;7.286;2023-02-02T07:57:53;100300.72;;;6.78;88.25
52855;BME280;38719;51.418;7.286;2023-02-02T08:00:24;100296.22;;;6.82;88.81
52855;BME280;38719;51.418;7.286;2023-02-02T08:02:52;100301.44;;;6.85;88.17
52855;BME280;38719;51.418;7.286;2023-02-02T08:05:20;100306.00;;;6.78;88.04
52855;BME280;38719;51.418;7.286;2023-02-02T08:07:49;100296.13;;;6.85;87.89
52855;BME280;38719;51.418;7.286;2023-02-02T08:10:17;100305.81;;;6.86;88.15
52855;BME280;38719;51.418;7.286;2023-02-02T08:12:45;100305.97;;;6.80;88.09
52855;BME280;38719;51.418;7.286;2023-02-02T08:15:12;100305.91;;;6.82;88.37
52855;BME280;38719;51.418;7.286;2023-02-02T08:17:43;100307.22;;;7.01;88.04
52855;BME280;38719;51.418;7.286;2023-02-02T08:20:12;100317.81;;;7.01;88.35
52855;BME280;38719;51.418;7.286;2023-02-02T08:22:39;100321.78;;;6.83;87.67
52855;BME280;38719;51.418;7.286;2023-02-02T08:25:09;100318.50;;;7.09;88.25
52855;BME280;38719;51.418;7.286;2023-02-02T08:27:36;100321.06;;;7.13;87.19
52855;BME280;38719;51.418;7.286;2023-02-02T08:30:04;100322.91;;;7.09;87.70
52855;BME280;38719;51.418;7.286;2023-02-02T08:32:32;100319.56;;;7.02;88.58
52855;BME280;38719;51.418;7.286;2023-02-02T08:35:00;100334.41;;;7.09;88.48
52855;BME280;38719;51.418;7.286;2023-02-02T08:37:27;100328.50;;;6.98;88.13
52855;BME280;38719;51.418;7.286;2023-02-02T08:39:55;100328.19;;;7.10;88.65
52855;BME280;38719;51.418;7.286;2023-02-02T08:42:24;100327.44;;;7.05;88.20
52855;BME280;38719;51.418;7.286;2023-02-02T08:44:51;100338.19;;;6.98;88.49
52855;BME280;38719;51.418;7.286;2023-02-02T08:47:39;100333.66;;;7.04;88.23
52855;BME280;38719;51.418;7.286;2023-02-02T08:50:08;100339.88;;;7.02;89.01
52855;BME280;38719;51.418;7.286;2023-02-02T08:52:36;100343.47;;;6.99;88.19
52855;BME280;38719;51.418;7.286;2023-02-02T08:55:04;100346.41;;;6.87;88.70
52855;BME280;38719;51.418;7.286;2023-02-02T08:57:34;100349.88;;;6.89;89.21
52855;BME280;38719;51.418;7.286;2023-02-02T09:00:02;100362.50;;;6.77;90.44
52855;BME280;38719;51.418;7.286;2023-02-02T09:02:30;100361.66;;;6.75;89.95
52855;BME280;38719;51.418;7.286;2023-02-02T09:04:57;100363.13;;;6.89;89.71
52855;BME280;38719;51.418;7.286;2023-02-02T09:07:25;100365.09;;;6.79;90.22
52855;BME280;38719;51.418;7.286;2023-02-02T09:09:52;100371.06;;;6.89;90.41
52855;BME280;38719;51.418;7.286;2023-02-02T09:12:23;100372.16;;;6.80;90.67
52855;BME280;38719;51.418;7.286;2023-02-02T09:14:52;100375.59;;;6.84;90.41
52855;BME280;38719;51.418;7.286;2023-02-02T09:17:20;100379.19;;;6.81;90.49
52855;BME280;38719;51.418;7.286;2023-02-02T09:19:47;100386.31;;;6.77;90.75
52855;BME280;38719;51.418;7.286;2023-02-02T09:22:15;100392.19;;;6.92;89.88
52855;BME280;38719;51.418;7.286;2023-02-02T09:24:42;100389.59;;;6.89;89.94
52855;BME280;38719;51.418;7.286;2023-02-02T09:27:10;100404.19;;;7.07;89.46
52855;BME280;38719;51.418;7.286;2023-02-02T09:29:37;100402.31;;;7.12;89.49
52855;BME280;38719;51.418;7.286;2023-02-02T09:32:06;100404.38;;;6.99;89.21
52855;BME280;38719;51.418;7.286;2023-02-02T09:34:34;100410.31;;;7.09;90.26
52855;BME280;38719;51.418;7.286;2023-02-02T09:37:02;100430.81;;;7.01;89.40
52855;BME280;38719;51.418;7.286;2023-02-02T09:39:29;100417.34;;;7.12;90.05
52855;BME280;38719;51.418;7.286;2023-02-02T09:42:12;100424.31;;;7.16;88.97
52855;BME280;38719;51.418;7.286;2023-02-02T09:44:56;100433.09;;;7.18;90.02
52855;BME280;38719;51.418;7.286;2023-02-02T09:47:35;100423.16;;;7.26;88.51
52855;BME280;38719;51.418;7.286;2023-02-02T09:50:14;100431.25;;;7.20;88.43
52855;BME280;38719;51.418;7.286;2023-02-02T09:52:48;100435.84;;;7.13;88.67
52855;BME280;38719;51.418;7.286;2023-02-02T09:55:31;100449.94;;;7.14;89.95
52855;BME280;38719;51.418;7.286;2023-02-02T09:58:05;100450.84;;;7.14;89.56
52855;BME280;38719;51.418;7.286;2023-02-02T10:00:38;100448.00;;;7.22;88.59
52855;BME280;38719;51.418;7.286;2023-02-02T10:03:14;100456.13;;;7.14;88.54
52855;BME280;38719;51.418;7.286;2023-02-02T10:05:47;100457.03;;;7.13;89.80
52855;BME280;38719;51.418;7.286;2023-02-02T10:08:24;100463.88;;;7.22;88.47
52855;BME280;38719;51.418;7.286;2023-02-02T10:11:03;100461.34;;;7.17;89.47
52855;BME280;38719;51.418;7.286;2023-02-02T10:13:34;100471.66;;;7.30;88.39
52855;BME280;38719;51.418;7.286;2023-02-02T10:16:06;100462.00;;;7.27;88.28
52855;BME280;38719;51.418;7.286;2023-02-02T10:18:44;100473.47;;;7.28;88.74
52855;BME280;38719;51.418;7.286;2023-02-02T10:21:19;100475.47;;;7.16;89.63
52855;BME280;38719;51.418;7.286;2023-02-02T10:23:50;100469.38;;;7.13;89.93
52855;BME280;38719;51.418;7.286;2023-02-02T10:26:24;100474.44;;;7.23;89.92
52855;BME280;38719;51.418;7.286;2023-02-02T10:29:06;100475.25;;;7.27;89.13
52855;BME280;38719;51.418;7.286;2023-02-02T10:31:42;100485.13;;;7.20;89.28
52855;BME280;38719;51.418;7.286;2023-02-02T10:34:15;100483.28;;;7.24;89.75
52855;BME280;38719;51.418;7.286;2023-02-02T10:36:52;100486.84;;;7.23;89.39
52855;BME280;38719;51.418;7.286;2023-02-02T10:39:29;100481.94;;;7.04;90.27
52855;BME280;38719;51.418;7.286;2023-02-02T10:42:08;100492.41;;;7.10;89.61
52855;BME280;38719;51.418;7.286;2023-02-02T10:44:46;100490.56;;;7.14;90.51
52855;BME280;38719;51.418;7.286;2023-02-02T10:47:20;100486.22;;;7.12;90.43
52855;BME280;38719;51.418;7.286;2023-02-02T10:49:57;100494.06;;;7.15;90.08
52855;BME280;38719;51.418;7.286;2023-02-02T10:52:31;100493.03;;;7.22;89.67
52855;BME280;38719;51.418;7.286;2023-02-02T10:55:05;100491.09;;;7.30;88.99
52855;BME280;38719;51.418;7.286;2023-02-02T10:57:45;100493.66;;;7.33;88.16
52855;BME280;38719;51.418;7.286;2023-02-02T11:00:20;100493.06;;;7.20;89.63
52855;BME280;38719;51.418;7.286;2023-02-02T11:02:51;100491.19;;;7.25;89.50
52855;BME280;38719;51.418;7.286;2023-02-02T11:05:23;100496.63;;;7.19;88.51
52855;BME280;38719;51.418;7.286;2023-02-02T11:08:13;100499.22;;;7.21;89.76
52855;BME280;38719;51.418;7.286;2023-02-02T11:10:43;100499.03;;;7.30;89.14
52855;BME280;38719;51.418;7.286;2023-02-02T11:13:16;100487.78;;;7.19;88.80
52855;BME280;38719;51.418;7.286;2023-02-02T11:15:45;100500.75;;;7.31;89.17
52855;BME280;38719;51.418;7.286;2023-02-02T11:18:20;100503.34;;;7.34;89.14
52855;BME280;38719;51.418;7.286;2023-02-02T11:20:54;100512.19;;;7.33;88.22
52855;BME280;38719;51.418;7.286;2023-02-02T11:23:25;100503.41;;;7.33;88.13
52855;BME280;38719;51.418;7.286;2023-02-02T11:25:58;100506.03;;;7.33;88.07
52855;BME280;38719;51.418;7.286;2023-02-02T11:28:30;100509.41;;;7.39;88.53
52855;BME280;38719;51.418;7.286;2023-02-02T11:31:01;100511.16;;;7.40;87.49
52855;BME280;38719;51.418;7.286;2023-02-02T11:33:31;100504.19;;;7.36;87.76
52855;BME280;38719;51.418;7.286;2023-02-02T11:36:03;100506.72;;;7.41;88.23
52855;BME280;38719;51.418;7.286;2023-02-02T11:38:31;100489.44;;;7.24;88.31
52855;BME280;38719;51.418;7.286;2023-02-02T11:41:01;100498.91;;;7.36;87.92
52855;BME280;38719;51.418;7.286;2023-02-02T11:43:32;100493.25;;;7.11;88.50
52855;BME280;38719;51.418;7.286;2023-02-02T11:46:16;100492.84;;;7.30;89.48
52855;BME280;38719;51.418;7.286;2023-02-02T11:48:49;100495.69;;;7.22;88.64
52855;BME280;38719;51.418;7.286;2023-02-02T11:51:23;100497.25;;;7.31;88.07
52855;BME280;38719;51.418;7.286;2023-02-02T11:54:00;100499.75;;;7.37;87.42
52855;BME280;38719;51.418;7.286;2023-02-02T11:56:29;100499.53;;;7.46;88.22
52855;BME280;38719;51.418;7.286;2023-02-02T11:58:57;100492.47;;;7.47;86.99
52855;BME280;38719;51.418;7.286;2023-02-02T12:01:31;100490.09;;;7.34;86.91
52855;BME280;38719;51.418;7.286;2023-02-02T12:04:00;100493.59;;;7.36;87.92
52855;BME280;38719;51.418;7.286;2023-02-02T12:06:34;100491.38;;;7.55;87.90
52855;BME280;38719;51.418;7.286;2023-02-02T12:09:12;100488.72;;;7.55;87.25
52855;BME280;38719;51.418;7.286;2023-02-02T12:11:48;100487.91;;;7.52;87.02
52855;BME280;38719;51.418;7.286;2023-02-02T12:14:29;100492.97;;;7.63;86.98
52855;BME280;38719;51.418;7.286;2023-02-02T12:17:07;100495.88;;;7.52;86.97
52855;BME280;38719;51.418;7.286;2023-02-02T12:22:43;100492.41;;;7.48;87.11
52855;BME280;38719;51.418;7.286;2023-02-02T12:28:19;100498.81;;;7.39;87.27
52855;BME280;38719;51.418;7.286;2023-02-02T12:30:55;100506.06;;;7.31;88.10
52855;BME280;38719;51.418;7.286;2023-02-02T12:33:32;100496.25;;;7.36;87.27
52855;BME280;38719;51.418;7.286;2023-02-02T12:36:17;100500.47;;;7.45;88.15
52855;BME280;38719;51.418;7.286;2023-02-02T12:39:07;100513.66;;;7.47;86.93
52855;BME280;38719;51.418;7.286;2023-02-02T12:41:47;100499.63;;;7.43;86.83
52855;BME280;38719;51.418;7.286;2023-02-02T12:44:23;100503.78;;;7.53;87.74
52855;BME280;38719;51.418;7.286;2023-02-02T12:47:04;100504.09;;;7.39;87.41
52855;BME280;38719;51.418;7.286;2023-02-02T12:49:45;100506.03;;;7.33;87.63
52855;BME280;38719;51.418;7.286;2023-02-02T12:52:30;100509.22;;;7.49;86.79
52855;BME280;38719;51.418;7.286;2023-02-02T12:55:14;100506.41;;;7.55;86.34
52855;BME280;38719;51.418;7.286;2023-02-02T12:57:49;100511.16;;;7.40;87.19
52855;BME280;38719;51.418;7.286;2023-02-02T13:03:25;100502.16;;;7.48;87.38
52855;BME280;38719;51.418;7.286;2023-02-02T13:06:22;100502.06;;;7.51;86.55
52855;BME280;38719;51.418;7.286;2023-02-02T13:08:57;100505.63;;;7.50;86.88
52855;BME280;38719;51.418;7.286;2023-02-02T13:11:36;100509.38;;;7.41;87.93
52855;BME280;38719;51.418;7.286;2023-02-02T13:14:08;100504.91;;;7.43;87.26
52855;BME280;38719;51.418;7.286;2023-02-02T13:16:40;100510.94;;;7.50;87.41
52855;BME280;38719;51.418;7.286;2023-02-02T13:19:13;100512.72;;;7.49;86.94
52855;BME280;38719;51.418;7.286;2023-02-02T13:21:43;100512.97;;;7.38;86.85
52855;BME280;38719;51.418;7.286;2023-02-02T13:24:14;100511.06;;;7.45;88.05
52855;BME280;38719;51.418;7.286;2023-02-02T13:26:45;100507.28;;;7.55;87.43
52855;BME280;38719;51.418;7.286;2023-02-02T13:29:25;100519.69;;;7.53;87.62
52855;BME280;38719;51.418;7.286;2023-02-02T13:31:57;100508.06;;;7.59;86.88
52855;BME280;38719;51.418;7.286;2023-02-02T13:34:32;100511.53;;;7.63;87.36